Terminal Aerodrome Forecast
Issued by NWS

Home | Current Version | Previous Version | Text Only | Print | Product List | Glossary On
Versions: 1 2 3 4 5 6 7 8 9 10 11 12 13 14 15 16 17 18
000
FTUS44 KLIX 211744
TAFMCB
TAF
KMCB 211744Z 2118/2218 16005KT P6SM SKC
     FM212200 16008KT P6SM VCSH BKN035
      TEMPO 2122/2201 23020G30KT 2SM +TSRAGR OVC030CB
     FM220500 21009KT P6SM BKN040 PROB30 2205/2211 4SM TSRA OVC025CB
     FM221500 24013KT P6SM FEW250 PROB30 2215/2218 4SM -SHRA BKN250=

USA.gov is the U.S. government's official web portal to all federal, state and local government web resources and services.